Time;durP1;ratioP1;P1;durP2;ratioP2;P2;SDS_P1;SDS_P2;PMS_P1;PMS_P2;Temp;Humidity;BMP_temperature;BMP_pressure;BME280_temperature;BME280_humidity;BME280_pressure;Samples;Min_cycle;Max_cycle;Signal;HPM_P1;HPM_P2
2020/12/14 00:00:24;;;;;;;3.22;1.30;;;;;;;;;;5021656;28;20034;-59
2020/12/14 00:02:50;;;;;;;7.65;1.23;;;;;;;;;;5000223;28;20052;-58
2020/12/14 00:05:16;;;;;;;3.95;1.70;;;;;;;;;;5001103;28;20073;-58
2020/12/14 00:07:43;;;;;;;14.10;1.67;;;;;;;;;;5008900;28;20049;-59
2020/12/14 00:10:09;;;;;;;3.85;1.08;;;;;;;;;;5022565;28;20131;-57
2020/12/14 00:12:36;;;;;;;5.03;1.35;;;;;;;;;;5014468;28;20068;-58
2020/12/14 00:15:02;;;;;;;7.07;1.25;;;;;;;;;;5002649;28;20052;-56
2020/12/14 00:17:28;;;;;;;6.57;1.42;;;;;;;;;;5001980;28;20027;-57
2020/12/14 00:19:55;;;;;;;3.58;1.20;;;;;;;;;;5019990;28;20097;-62
2020/12/14 00:22:21;;;;;;;6.93;1.33;;;;;;;;;;5022495;28;20062;-59
2020/12/14 00:24:47;;;;;;;4.75;1.70;;;;;;;;;;5015361;28;20050;-60
2020/12/14 00:27:13;;;;;;;3.05;1.25;;;;;;;;;;5023086;28;20042;-58
2020/12/14 00:29:41;;;;;;;6.63;1.20;;;;;;;;;;5015923;28;20049;-59
2020/12/14 00:32:07;;;;;;;11.30;1.45;;;;;;;;;;5022824;28;20439;-59
2020/12/14 00:34:33;;;;;;;2.80;1.02;;;;;;;;;;5017833;28;20078;-53
2020/12/14 00:36:59;;;;;;;4.70;1.58;;;;;;;;;;5002635;28;20046;-61
2020/12/14 00:39:28;;;;;;;5.13;1.30;;;;;;;;;;5004469;28;20049;-60
2020/12/14 00:41:55;;;;;;;3.78;1.30;;;;;;;;;;4998861;28;20061;-59
2020/12/14 00:44:21;;;;;;;4.53;1.30;;;;;;;;;;5003237;28;20061;-58
2020/12/14 00:46:48;;;;;;;5.55;1.60;;;;;;;;;;5014530;28;20430;-62
2020/12/14 00:49:23;;;;;;;5.47;1.50;;;;;;;;;;5026195;28;20041;-57
2020/12/14 00:51:49;;;;;;;9.88;1.42;;;;;;;;;;5010069;28;20291;-60
2020/12/14 00:54:15;;;;;;;7.97;1.30;;;;;;;;;;5006233;28;20124;-60
2020/12/14 00:56:41;;;;;;;3.72;1.08;;;;;;;;;;5011373;28;20053;-61
2020/12/14 00:59:10;;;;;;;3.38;1.35;;;;;;;;;;5021760;28;20041;-58
2020/12/14 01:01:36;;;;;;;5.53;1.33;;;;;;;;;;5013245;28;20046;-62
2020/12/14 01:04:03;;;;;;;4.70;1.40;;;;;;;;;;5002804;28;20053;-59
2020/12/14 01:06:29;;;;;;;5.65;1.38;;;;;;;;;;4999361;28;20042;-53
2020/12/14 01:08:56;;;;;;;7.53;1.38;;;;;;;;;;5002503;28;20038;-57
2020/12/14 01:11:28;;;;;;;6.72;1.27;;;;;;;;;;4983017;28;20038;-60
2020/12/14 01:13:54;;;;;;;9.70;1.95;;;;;;;;;;5024843;28;20400;-57
2020/12/14 01:16:20;;;;;;;3.70;1.10;;;;;;;;;;5017522;28;20046;-57
2020/12/14 01:18:46;;;;;;;8.73;1.20;;;;;;;;;;5020916;28;20034;-55
2020/12/14 01:21:13;;;;;;;5.18;1.20;;;;;;;;;;5021072;28;20053;-55
2020/12/14 01:23:39;;;;;;;5.00;1.40;;;;;;;;;;4998893;28;20065;-58
2020/12/14 01:26:06;;;;;;;7.25;1.40;;;;;;;;;;5002195;28;20034;-56
2020/12/14 01:28:32;;;;;;;5.63;1.23;;;;;;;;;;5015911;28;20056;-57
2020/12/14 01:30:58;;;;;;;6.25;1.27;;;;;;;;;;5021310;28;20064;-59
2020/12/14 01:33:24;;;;;;;3.45;1.13;;;;;;;;;;5017633;28;20038;-58
2020/12/14 01:35:50;;;;;;;7.05;1.15;;;;;;;;;;5023078;28;20096;-53
2020/12/14 01:38:18;;;;;;;6.88;1.50;;;;;;;;;;5009647;28;20040;-57
2020/12/14 01:40:44;;;;;;;7.55;1.40;;;;;;;;;;5000423;28;20042;-57
2020/12/14 01:43:10;;;;;;;4.05;1.40;;;;;;;;;;4999520;28;20049;-53
2020/12/14 01:45:36;;;;;;;5.07;1.13;;;;;;;;;;5002847;28;20049;-57
2020/12/14 01:48:05;;;;;;;4.60;1.13;;;;;;;;;;4999118;28;20046;-55
2020/12/14 01:50:31;;;;;;;6.57;0.95;;;;;;;;;;5001392;28;20038;-57
2020/12/14 01:52:58;;;;;;;2.75;1.08;;;;;;;;;;5000005;28;20056;-55
2020/12/14 01:55:25;;;;;;;3.22;1.42;;;;;;;;;;4999988;28;20078;-58
2020/12/14 01:57:51;;;;;;;10.30;1.38;;;;;;;;;;5000073;28;20123;-59
2020/12/14 02:00:17;;;;;;;3.08;1.70;;;;;;;;;;5019843;28;20095;-56
2020/12/14 02:02:43;;;;;;;4.35;1.38;;;;;;;;;;5005469;28;20046;-53
2020/12/14 02:05:09;;;;;;;3.38;1.23;;;;;;;;;;5017012;28;20042;-52
2020/12/14 02:07:36;;;;;;;4.65;1.58;;;;;;;;;;5020673;28;20097;-59
2020/12/14 02:10:04;;;;;;;6.25;1.48;;;;;;;;;;5003635;28;20053;-55
2020/12/14 02:12:30;;;;;;;3.30;1.30;;;;;;;;;;5002730;28;20042;-58
2020/12/14 02:14:57;;;;;;;2.42;1.20;;;;;;;;;;4996706;28;20336;-55
2020/12/14 02:17:30;;;;;;;2.72;0.90;;;;;;;;;;5002341;28;20061;-54
2020/12/14 02:19:56;;;;;;;5.13;1.20;;;;;;;;;;5010903;28;20051;-53
2020/12/14 02:22:23;;;;;;;3.28;1.27;;;;;;;;;;5016180;28;20053;-55
2020/12/14 02:24:53;;;;;;;4.85;0.98;;;;;;;;;;5000348;28;20058;-59
2020/12/14 02:27:19;;;;;;;2.63;1.40;;;;;;;;;;5000754;28;20488;-55
2020/12/14 02:29:47;;;;;;;5.57;0.90;;;;;;;;;;4992356;28;20070;-59
2020/12/14 02:32:21;;;;;;;5.28;1.25;;;;;;;;;;5033655;28;20054;-58
2020/12/14 02:34:48;;;;;;;6.38;1.13;;;;;;;;;;4997868;28;20042;-57
2020/12/14 02:37:15;;;;;;;4.28;1.30;;;;;;;;;;5000904;28;20039;-53
2020/12/14 02:39:42;;;;;;;6.13;1.10;;;;;;;;;;4998608;28;20084;-58
2020/12/14 02:42:10;;;;;;;4.03;1.17;;;;;;;;;;5012248;28;20049;-54
2020/12/14 02:44:36;;;;;;;2.78;1.13;;;;;;;;;;5019360;28;20119;-55
2020/12/14 02:47:04;;;;;;;2.85;0.75;;;;;;;;;;5015460;28;20056;-60
2020/12/14 02:49:31;;;;;;;4.70;1.00;;;;;;;;;;5020124;28;20108;-59
2020/12/14 02:51:57;;;;;;;3.10;1.00;;;;;;;;;;5017561;28;20041;-57
2020/12/14 02:54:23;;;;;;;3.05;1.27;;;;;;;;;;5022051;28;20045;-58
2020/12/14 02:56:49;;;;;;;4.80;1.20;;;;;;;;;;5000777;28;20057;-55
2020/12/14 02:59:17;;;;;;;2.70;0.95;;;;;;;;;;5002195;28;20058;-62
2020/12/14 03:01:43;;;;;;;3.08;0.93;;;;;;;;;;5004997;28;20073;-57
2020/12/14 03:04:09;;;;;;;3.90;1.27;;;;;;;;;;5020377;28;20044;-60
2020/12/14 03:06:36;;;;;;;2.17;0.90;;;;;;;;;;5010970;28;20051;-58
2020/12/14 03:09:04;;;;;;;4.00;0.88;;;;;;;;;;5003303;28;20048;-57
2020/12/14 03:11:30;;;;;;;5.30;1.17;;;;;;;;;;5006444;28;20045;-59
2020/12/14 03:13:56;;;;;;;3.10;0.88;;;;;;;;;;5025110;28;20042;-58
2020/12/14 03:16:23;;;;;;;2.72;1.10;;;;;;;;;;5017058;28;20092;-54
2020/12/14 03:18:52;;;;;;;5.68;1.30;;;;;;;;;;5004259;28;20049;-57
2020/12/14 03:21:18;;;;;;;5.03;1.08;;;;;;;;;;5000547;28;20033;-57
2020/12/14 03:23:44;;;;;;;4.57;1.02;;;;;;;;;;5025466;28;20038;-54
2020/12/14 03:26:16;;;;;;;5.47;1.10;;;;;;;;;;5006133;28;20042;-57
2020/12/14 03:28:43;;;;;;;4.53;1.10;;;;;;;;;;5022699;28;20099;-57
2020/12/14 03:31:09;;;;;;;2.70;1.02;;;;;;;;;;5024560;28;20096;-55
2020/12/14 03:33:35;;;;;;;7.78;1.35;;;;;;;;;;5018938;28;20042;-56
2020/12/14 03:36:01;;;;;;;3.08;1.27;;;;;;;;;;5026028;28;20119;-55
2020/12/14 03:38:28;;;;;;;4.05;1.20;;;;;;;;;;5018900;28;20034;-57
2020/12/14 03:40:54;;;;;;;3.38;1.10;;;;;;;;;;5022642;28;20037;-58
2020/12/14 03:43:20;;;;;;;1.90;0.82;;;;;;;;;;5004988;28;20104;-58
2020/12/14 03:45:48;;;;;;;2.85;1.05;;;;;;;;;;5004981;28;20066;-55
2020/12/14 03:48:16;;;;;;;1.60;0.55;;;;;;;;;;5009969;28;20081;-57
2020/12/14 03:50:48;;;;;;;2.50;1.08;;;;;;;;;;5023400;28;20059;-50
2020/12/14 03:53:14;;;;;;;5.10;1.13;;;;;;;;;;5020539;28;20131;-57
2020/12/14 03:55:40;;;;;;;4.05;1.10;;;;;;;;;;5023286;28;20041;-56
2020/12/14 03:58:07;;;;;;;2.60;1.08;;;;;;;;;;5017274;28;20052;-56
2020/12/14 04:00:33;;;;;;;4.15;1.15;;;;;;;;;;5022611;28;20053;-54
2020/12/14 04:03:00;;;;;;;4.03;0.93;;;;;;;;;;5002031;28;20050;-54
2020/12/14 04:05:26;;;;;;;4.45;1.00;;;;;;;;;;5002027;28;20078;-57
2020/12/14 04:07:54;;;;;;;2.55;0.82;;;;;;;;;;5003093;28;20056;-54
2020/12/14 04:10:20;;;;;;;4.00;1.10;;;;;;;;;;5037202;28;20044;-54
2020/12/14 04:12:46;;;;;;;2.53;0.70;;;;;;;;;;5024191;28;20049;-57
2020/12/14 04:15:12;;;;;;;2.28;0.90;;;;;;;;;;5019615;28;20082;-57
2020/12/14 04:17:38;;;;;;;5.20;1.20;;;;;;;;;;5020816;28;20057;-60
2020/12/14 04:20:04;;;;;;;4.78;0.90;;;;;;;;;;5004383;28;20030;-56
2020/12/14 04:22:30;;;;;;;2.88;1.10;;;;;;;;;;5002553;28;20038;-56
2020/12/14 04:24:57;;;;;;;1.90;1.00;;;;;;;;;;5001733;28;20052;-56
2020/12/14 04:27:23;;;;;;;2.38;1.00;;;;;;;;;;5002668;28;20038;-58
2020/12/14 04:29:49;;;;;;;4.90;1.00;;;;;;;;;;4999943;28;20119;-54
2020/12/14 04:32:15;;;;;;;4.68;1.10;;;;;;;;;;5003228;28;20100;-58
2020/12/14 04:34:41;;;;;;;2.35;1.02;;;;;;;;;;5009704;28;20041;-53
2020/12/14 04:37:07;;;;;;;1.58;0.95;;;;;;;;;;5021554;28;20041;-55
2020/12/14 04:39:34;;;;;;;3.13;0.95;;;;;;;;;;5018023;28;20064;-55
2020/12/14 04:42:01;;;;;;;3.40;0.80;;;;;;;;;;5004458;28;20065;-55
2020/12/14 04:44:28;;;;;;;1.90;0.90;;;;;;;;;;5000227;28;20050;-53
2020/12/14 04:46:55;;;;;;;1.47;0.80;;;;;;;;;;5022590;28;20090;-56
2020/12/14 04:49:22;;;;;;;1.90;0.90;;;;;;;;;;5022594;28;20045;-54
2020/12/14 04:51:51;;;;;;;1.42;0.77;;;;;;;;;;5001126;28;20048;-58
2020/12/14 04:54:19;;;;;;;1.92;0.60;;;;;;;;;;5002767;28;20049;-58
2020/12/14 04:56:47;;;;;;;2.72;0.80;;;;;;;;;;5016971;28;20037;-53
2020/12/14 04:59:17;;;;;;;2.72;0.90;;;;;;;;;;5022952;28;20045;-58
2020/12/14 05:01:43;;;;;;;2.85;0.85;;;;;;;;;;5003518;28;20092;-59
2020/12/14 05:04:12;;;;;;;2.67;0.95;;;;;;;;;;5001229;28;20042;-56
2020/12/14 05:06:56;;;;;;;3.50;0.80;;;;;;;;;;4998046;28;20061;-58
2020/12/14 05:09:22;;;;;;;1.88;0.85;;;;;;;;;;5002260;28;20038;-58
2020/12/14 05:11:48;;;;;;;10.13;1.00;;;;;;;;;;5011652;28;20033;-55
2020/12/14 05:14:16;;;;;;;3.17;0.77;;;;;;;;;;5024869;28;20071;-59
2020/12/14 05:16:42;;;;;;;2.20;0.95;;;;;;;;;;5010459;28;20045;-56
2020/12/14 05:19:22;;;;;;;2.45;0.82;;;;;;;;;;5002333;28;20042;-57
2020/12/14 05:21:48;;;;;;;2.85;0.90;;;;;;;;;;4998049;28;20058;-59
2020/12/14 05:24:21;;;;;;;3.72;1.20;;;;;;;;;;5000634;28;20120;-57
2020/12/14 05:26:48;;;;;;;2.10;0.90;;;;;;;;;;5005161;28;20100;-58
2020/12/14 05:29:26;;;;;;;3.40;1.00;;;;;;;;;;5019172;28;20057;-54
2020/12/14 05:31:59;;;;;;;1.65;0.80;;;;;;;;;;5018777;28;20045;-56
2020/12/14 05:34:29;;;;;;;1.88;0.90;;;;;;;;;;5020897;28;20045;-57
2020/12/14 05:36:56;;;;;;;2.33;0.85;;;;;;;;;;5017173;28;20060;-58
2020/12/14 05:39:26;;;;;;;1.75;0.80;;;;;;;;;;5021651;28;20030;-62
2020/12/14 05:41:53;;;;;;;1.45;0.75;;;;;;;;;;5011845;28;20864;-58
2020/12/14 05:44:28;;;;;;;3.05;0.88;;;;;;;;;;5024583;28;20041;-61
2020/12/14 05:46:54;;;;;;;1.42;0.80;;;;;;;;;;5015539;28;20053;-60
2020/12/14 05:49:21;;;;;;;2.80;1.08;;;;;;;;;;5001734;28;20046;-55
2020/12/14 05:51:47;;;;;;;3.63;0.70;;;;;;;;;;5000572;28;20056;-61
2020/12/14 05:54:13;;;;;;;3.22;1.08;;;;;;;;;;4998819;28;20042;-60
2020/12/14 05:56:42;;;;;;;2.97;1.05;;;;;;;;;;5001058;28;20049;-54
2020/12/14 05:59:10;;;;;;;2.40;0.90;;;;;;;;;;4998031;28;20070;-60
2020/12/14 06:01:38;;;;;;;1.90;0.80;;;;;;;;;;5001852;28;20050;-58
2020/12/14 06:04:04;;;;;;;1.88;0.90;;;;;;;;;;5010491;28;20364;-60
2020/12/14 06:06:31;;;;;;;2.25;0.85;;;;;;;;;;5020389;28;20041;-57
2020/12/14 06:09:04;;;;;;;2.17;0.80;;;;;;;;;;5008802;28;20477;-58
2020/12/14 06:11:34;;;;;;;1.40;0.73;;;;;;;;;;5001175;28;20049;-57
2020/12/14 06:14:02;;;;;;;2.35;0.98;;;;;;;;;;5007845;28;20176;-55
2020/12/14 06:16:29;;;;;;;1.67;0.85;;;;;;;;;;5019744;28;20054;-53
2020/12/14 06:18:56;;;;;;;1.65;0.75;;;;;;;;;;5009916;28;20084;-57
2020/12/14 06:21:24;;;;;;;4.68;0.95;;;;;;;;;;5001584;28;20096;-57
2020/12/14 06:23:51;;;;;;;8.63;0.80;;;;;;;;;;5003160;28;20103;-55
2020/12/14 06:26:21;;;;;;;3.53;0.90;;;;;;;;;;5019362;28;20046;-54
2020/12/14 06:28:49;;;;;;;1.00;0.70;;;;;;;;;;5014882;28;20038;-57
2020/12/14 06:31:29;;;;;;;4.13;0.77;;;;;;;;;;5019738;28;20587;-58
2020/12/14 06:33:56;;;;;;;1.40;0.80;;;;;;;;;;5013919;28;20082;-56
2020/12/14 06:36:23;;;;;;;1.08;0.80;;;;;;;;;;5002777;28;20042;-59
2020/12/14 06:39:22;;;;;;;4.80;0.90;;;;;;;;;;5001365;28;20038;-60
2020/12/14 06:41:48;;;;;;;3.75;1.27;;;;;;;;;;5012637;28;20049;-58
2020/12/14 06:44:15;;;;;;;0.95;0.70;;;;;;;;;;5018593;28;20045;-59
2020/12/14 06:46:42;;;;;;;2.58;1.20;;;;;;;;;;5006148;28;20042;-58
2020/12/14 06:49:11;;;;;;;3.47;1.15;;;;;;;;;;5003377;28;20077;-59
2020/12/14 06:51:49;;;;;;;2.08;1.08;;;;;;;;;;5021750;28;20045;-58
2020/12/14 06:54:38;;;;;;;5.75;1.10;;;;;;;;;;5022000;28;20066;-57
2020/12/14 06:57:05;;;;;;;2.50;1.15;;;;;;;;;;5002571;28;20046;-56
2020/12/14 06:59:31;;;;;;;2.03;0.95;;;;;;;;;;5002498;28;20159;-58
2020/12/14 07:01:58;;;;;;;1.98;0.95;;;;;;;;;;4991698;28;20052;-57
2020/12/14 07:04:38;;;;;;;3.92;1.10;;;;;;;;;;5002281;28;20050;-59
2020/12/14 07:07:25;;;;;;;2.33;1.10;;;;;;;;;;5003071;28;20044;-57
2020/12/14 07:09:51;;;;;;;2.00;1.10;;;;;;;;;;4999971;28;20102;-58
2020/12/14 07:12:24;;;;;;;2.00;1.02;;;;;;;;;;5000379;28;20026;-55
2020/12/14 07:14:51;;;;;;;3.60;1.00;;;;;;;;;;5003941;28;20116;-60
2020/12/14 07:17:18;;;;;;;5.20;1.10;;;;;;;;;;5015020;28;20046;-58
2020/12/14 07:19:46;;;;;;;2.00;0.90;;;;;;;;;;5021684;28;20050;-59
2020/12/14 07:22:14;;;;;;;5.50;1.20;;;;;;;;;;5018965;28;20158;-58
2020/12/14 07:24:40;;;;;;;3.97;1.20;;;;;;;;;;5022864;28;20042;-58
2020/12/14 07:27:09;;;;;;;3.13;1.30;;;;;;;;;;5019966;28;20053;-60
2020/12/14 07:29:36;;;;;;;;;;;;;;;;;;5024509;28;20049;-58
2020/12/14 07:32:03;;;;;;;5.38;1.40;;;;;;;;;;5010054;28;19953;-58
2020/12/14 07:34:29;;;;;;;2.28;1.23;;;;;;;;;;5013223;28;20135;-59
2020/12/14 07:36:56;;;;;;;5.70;1.50;;;;;;;;;;5011625;28;20038;-59
2020/12/14 07:39:22;;;;;;;2.30;1.27;;;;;;;;;;5012926;28;20049;-60
2020/12/14 07:41:48;;;;;;;2.25;1.33;;;;;;;;;;5010916;28;20053;-60
2020/12/14 07:44:18;;;;;;;2.90;1.17;;;;;;;;;;5010052;28;20057;-60
2020/12/14 07:46:44;;;;;;;3.28;1.42;;;;;;;;;;5011362;28;20054;-61
2020/12/14 07:49:11;;;;;;;3.03;1.48;;;;;;;;;;5012016;28;20041;-58
2020/12/14 07:51:39;;;;;;;2.88;1.38;;;;;;;;;;5007521;28;20050;-60
2020/12/14 07:54:08;;;;;;;6.90;1.20;;;;;;;;;;5010802;28;20049;-58
2020/12/14 07:56:41;;;;;;;3.60;1.33;;;;;;;;;;5005039;28;20130;-61
2020/12/14 07:59:16;;;;;;;2.85;1.30;;;;;;;;;;5018540;28;20124;-59
2020/12/14 08:01:42;;;;;;;2.85;1.38;;;;;;;;;;5023514;28;20073;-60
2020/12/14 08:04:08;;;;;;;3.45;1.30;;;;;;;;;;5020822;28;20092;-59
2020/12/14 08:06:36;;;;;;;3.33;1.38;;;;;;;;;;5025806;28;20042;-57
2020/12/14 08:09:02;;;;;;;4.45;1.65;;;;;;;;;;5006103;28;20049;-59
2020/12/14 08:11:29;;;;;;;3.38;1.42;;;;;;;;;;5003746;28;20046;-58
2020/12/14 08:13:55;;;;;;;3.97;1.80;;;;;;;;;;5011787;28;20061;-59
2020/12/14 08:16:22;;;;;;;6.82;2.40;;;;;;;;;;5025081;28;20041;-58
2020/12/14 08:18:48;;;;;;;5.55;2.22;;;;;;;;;;5012192;28;20058;-58
2020/12/14 08:21:22;;;;;;;3.25;1.50;;;;;;;;;;5002465;28;20039;-58
2020/12/14 08:23:51;;;;;;;2.78;1.23;;;;;;;;;;4999535;28;20054;-61
2020/12/14 08:26:22;;;;;;;4.03;1.40;;;;;;;;;;5001028;28;20109;-61
2020/12/14 08:28:51;;;;;;;4.05;1.88;;;;;;;;;;5005082;28;20053;-61
2020/12/14 08:31:17;;;;;;;3.20;1.67;;;;;;;;;;5021563;28;20052;-61
2020/12/14 08:33:50;;;;;;;3.67;1.60;;;;;;;;;;5015310;28;20042;-61
2020/12/14 08:36:16;;;;;;;5.22;2.15;;;;;;;;;;5002379;28;20042;-60
2020/12/14 08:38:44;;;;;;;5.95;2.40;;;;;;;;;;5000670;28;20151;-60
2020/12/14 08:41:10;;;;;;;5.15;2.35;;;;;;;;;;5019333;28;20041;-59
2020/12/14 08:43:37;;;;;;;4.22;2.25;;;;;;;;;;5001105;28;20120;-61
2020/12/14 08:46:05;;;;;;;4.65;2.30;;;;;;;;;;5019736;28;20163;-62
2020/12/14 08:48:40;;;;;;;5.07;2.70;;;;;;;;;;5021430;28;20123;-61
2020/12/14 08:51:06;;;;;;;7.72;3.20;;;;;;;;;;5018725;28;20286;-60
2020/12/14 08:53:33;;;;;;;5.22;2.90;;;;;;;;;;5022034;28;20049;-58
2020/12/14 08:56:09;;;;;;;6.38;3.00;;;;;;;;;;5003990;28;20105;-58
2020/12/14 08:58:51;;;;;;;6.07;2.72;;;;;;;;;;4999754;28;20132;-61
2020/12/14 09:01:18;;;;;;;8.68;2.15;;;;;;;;;;4999437;28;20030;-57
2020/12/14 09:03:55;;;;;;;6.00;3.13;;;;;;;;;;4995140;28;21429;-61
2020/12/14 09:06:27;;;;;;;5.53;2.78;;;;;;;;;;4997735;28;20049;-60
2020/12/14 09:08:57;;;;;;;4.80;2.38;;;;;;;;;;4998897;28;20046;-59
2020/12/14 09:11:25;;;;;;;5.43;2.33;;;;;;;;;;4997954;28;20102;-63
2020/12/14 09:13:52;;;;;;;4.72;2.22;;;;;;;;;;5002037;28;20045;-59
2020/12/14 09:16:19;;;;;;;5.15;2.38;;;;;;;;;;4995174;28;20053;-62
2020/12/14 09:18:46;;;;;;;3.83;2.10;;;;;;;;;;4989477;28;20037;-59
2020/12/14 09:21:13;;;;;;;3.47;1.73;;;;;;;;;;5007942;28;20123;-60
2020/12/14 09:23:39;;;;;;;6.50;1.92;;;;;;;;;;5007199;28;20349;-60
2020/12/14 09:26:30;;;;;;;2.10;1.35;;;;;;;;;;5003157;28;20038;-61
2020/12/14 09:29:15;;;;;;;3.28;1.77;;;;;;;;;;5002830;28;20060;-61
2020/12/14 09:31:48;;;;;;;3.22;1.48;;;;;;;;;;4992610;28;20069;-61
2020/12/14 09:34:15;;;;;;;1.83;1.20;;;;;;;;;;5024398;28;20095;-59
2020/12/14 09:36:41;;;;;;;4.65;1.90;;;;;;;;;;4995845;28;20116;-59
2020/12/14 09:39:07;;;;;;;2.75;1.48;;;;;;;;;;5020536;28;20466;-60
2020/12/14 09:41:33;;;;;;;2.80;1.67;;;;;;;;;;5017183;28;20048;-59
2020/12/14 09:44:00;;;;;;;7.07;2.13;;;;;;;;;;5021803;28;20042;-61
2020/12/14 09:46:26;;;;;;;4.32;1.95;;;;;;;;;;5018297;28;21557;-62
2020/12/14 09:48:54;;;;;;;4.07;2.25;;;;;;;;;;5011682;28;20056;-58
2020/12/14 09:51:20;;;;;;;4.23;2.10;;;;;;;;;;5018993;28;20034;-57
2020/12/14 09:53:46;;;;;;;4.65;2.35;;;;;;;;;;5001265;28;20141;-59
2020/12/14 09:56:12;;;;;;;3.55;2.05;;;;;;;;;;5001813;28;20042;-59
2020/12/14 09:58:42;;;;;;;3.15;1.70;;;;;;;;;;5000582;28;20059;-58
2020/12/14 10:01:10;;;;;;;2.88;1.58;;;;;;;;;;5000606;28;20053;-61
2020/12/14 10:03:36;;;;;;;6.25;1.52;;;;;;;;;;5000688;28;20078;-58
2020/12/14 10:06:03;;;;;;;3.17;1.80;;;;;;;;;;5001935;28;20046;-61
2020/12/14 10:08:36;;;;;;;7.30;2.13;;;;;;;;;;5001052;28;20054;-56
2020/12/14 10:11:02;;;;;;;4.38;2.00;;;;;;;;;;5001304;28;20052;-61
2020/12/14 10:13:28;;;;;;;9.02;1.80;;;;;;;;;;5006539;28;20034;-60
2020/12/14 10:15:54;;;;;;;2.47;1.60;;;;;;;;;;5019419;28;20048;-60
2020/12/14 10:18:21;;;;;;;3.45;1.45;;;;;;;;;;5010571;28;20034;-58
2020/12/14 10:20:47;;;;;;;7.38;1.88;;;;;;;;;;5001037;28;20046;-61
2020/12/14 10:23:14;;;;;;;3.38;1.83;;;;;;;;;;4997311;28;20026;-61
2020/12/14 10:25:40;;;;;;;4.78;2.20;;;;;;;;;;5000869;28;20050;-61
2020/12/14 10:28:08;;;;;;;6.40;2.03;;;;;;;;;;5000271;28;20052;-61
2020/12/14 10:30:34;;;;;;;3.60;1.88;;;;;;;;;;5010415;28;20061;-61
2020/12/14 10:33:13;;;;;;;6.55;2.40;;;;;;;;;;5002441;28;20046;-59
2020/12/14 10:36:04;;;;;;;3.20;1.80;;;;;;;;;;5019093;28;20077;-59
2020/12/14 10:38:33;;;;;;;3.58;1.85;;;;;;;;;;5014319;28;20046;-60
2020/12/14 10:40:59;;;;;;;;;;;;;;;;;;4999238;28;20069;-54
2020/12/14 10:43:25;;;;;;;2.60;1.40;;;;;;;;;;5015600;28;19917;-60
2020/12/14 10:45:51;;;;;;;2.22;1.35;;;;;;;;;;5001358;28;20128;-58
2020/12/14 10:48:17;;;;;;;4.10;1.77;;;;;;;;;;4999091;28;20059;-57
2020/12/14 10:50:43;;;;;;;3.40;1.30;;;;;;;;;;5016272;28;20034;-60
2020/12/14 10:53:10;;;;;;;3.65;1.67;;;;;;;;;;5010856;28;20052;-61
2020/12/14 10:55:37;;;;;;;5.60;1.45;;;;;;;;;;5017199;28;20052;-61
2020/12/14 10:58:04;;;;;;;2.58;1.33;;;;;;;;;;5022239;28;20041;-60
2020/12/14 11:00:30;;;;;;;4.47;1.67;;;;;;;;;;4999894;28;20037;-60
2020/12/14 11:02:59;;;;;;;3.22;1.40;;;;;;;;;;5022957;28;20034;-60
2020/12/14 11:05:25;;;;;;;4.82;1.75;;;;;;;;;;5010358;28;20054;-60
2020/12/14 11:07:53;;;;;;;5.47;1.80;;;;;;;;;;5000738;28;20038;-61
2020/12/14 11:10:19;;;;;;;4.65;1.80;;;;;;;;;;5005254;28;20070;-60
2020/12/14 11:12:46;;;;;;;5.90;2.25;;;;;;;;;;5018192;28;20060;-60
2020/12/14 11:15:12;;;;;;;6.75;2.38;;;;;;;;;;5011532;28;20046;-59
2020/12/14 11:17:43;;;;;;;5.03;1.55;;;;;;;;;;5000187;28;20056;-60
2020/12/14 11:20:09;;;;;;;5.00;1.60;;;;;;;;;;4997191;28;20082;-60
2020/12/14 11:22:35;;;;;;;3.88;1.42;;;;;;;;;;5000909;28;20034;-60
2020/12/14 11:25:01;;;;;;;6.90;1.73;;;;;;;;;;4996723;28;20046;-58
2020/12/14 11:27:27;;;;;;;2.80;1.45;;;;;;;;;;5002804;28;20082;-61
2020/12/14 11:29:54;;;;;;;4.85;1.70;;;;;;;;;;5003055;28;20038;-59
2020/12/14 11:32:20;;;;;;;3.33;1.55;;;;;;;;;;5018352;28;20048;-60
2020/12/14 11:34:46;;;;;;;5.75;1.80;;;;;;;;;;5022662;28;20033;-61
2020/12/14 11:37:12;;;;;;;3.42;1.35;;;;;;;;;;5003148;28;20038;-58
2020/12/14 11:39:38;;;;;;;3.40;1.73;;;;;;;;;;5004368;28;20038;-58
2020/12/14 11:42:04;;;;;;;4.38;1.70;;;;;;;;;;5009932;28;20046;-61
2020/12/14 11:44:30;;;;;;;3.20;1.55;;;;;;;;;;5022738;28;20042;-61
2020/12/14 11:46:57;;;;;;;3.50;1.50;;;;;;;;;;5009937;28;20053;-58
2020/12/14 11:49:25;;;;;;;3.60;1.63;;;;;;;;;;5002163;28;20120;-59
2020/12/14 11:51:51;;;;;;;3.55;1.50;;;;;;;;;;5000184;28;20128;-59
2020/12/14 11:54:18;;;;;;;9.32;1.80;;;;;;;;;;5004860;28;20054;-60
2020/12/14 11:56:46;;;;;;;7.13;1.50;;;;;;;;;;5001199;28;20034;-60
2020/12/14 11:59:13;;;;;;;3.92;1.38;;;;;;;;;;5003146;28;20078;-61
2020/12/14 12:01:39;;;;;;;2.15;1.05;;;;;;;;;;5000317;28;20056;-60
2020/12/14 12:04:06;;;;;;;6.35;1.38;;;;;;;;;;5021579;28;20078;-59
2020/12/14 12:06:32;;;;;;;2.90;1.40;;;;;;;;;;5021678;28;20053;-59
2020/12/14 12:09:00;;;;;;;3.22;1.50;;;;;;;;;;5031581;28;20053;-59
2020/12/14 12:11:26;;;;;;;2.83;1.33;;;;;;;;;;5002126;28;20052;-60
2020/12/14 12:13:52;;;;;;;3.05;1.50;;;;;;;;;;5000474;28;20056;-60
2020/12/14 12:16:18;;;;;;;1.88;1.17;;;;;;;;;;5002999;28;20066;-61
2020/12/14 12:18:48;;;;;;;8.82;1.40;;;;;;;;;;4999813;28;20130;-61
2020/12/14 12:21:15;;;;;;;2.15;1.33;;;;;;;;;;5001776;28;20078;-61
2020/12/14 12:23:41;;;;;;;7.57;1.65;;;;;;;;;;5010952;28;20068;-61
2020/12/14 12:26:08;;;;;;;2.60;1.35;;;;;;;;;;5023040;28;20070;-60
2020/12/14 12:28:34;;;;;;;2.97;1.20;;;;;;;;;;5018500;28;20040;-59
2020/12/14 12:31:00;;;;;;;4.75;1.30;;;;;;;;;;5024902;28;20056;-57
2020/12/14 12:33:26;;;;;;;2.28;1.25;;;;;;;;;;5016525;28;20144;-58
2020/12/14 12:35:52;;;;;;;2.90;1.27;;;;;;;;;;5023807;28;20046;-57
2020/12/14 12:38:19;;;;;;;5.25;1.60;;;;;;;;;;5013707;28;20042;-58
2020/12/14 12:40:45;;;;;;;10.30;1.50;;;;;;;;;;5003783;28;20053;-61
2020/12/14 12:43:11;;;;;;;2.53;1.38;;;;;;;;;;5017018;28;20046;-56
2020/12/14 12:45:37;;;;;;;5.00;1.40;;;;;;;;;;5021503;28;20054;-61
2020/12/14 12:48:04;;;;;;;6.07;1.42;;;;;;;;;;5022519;28;20048;-59
2020/12/14 12:50:30;;;;;;;2.70;1.58;;;;;;;;;;4997990;28;20071;-58
2020/12/14 12:52:56;;;;;;;2.88;1.38;;;;;;;;;;5002619;28;20052;-61
2020/12/14 12:55:23;;;;;;;5.38;1.70;;;;;;;;;;5014064;28;20038;-60
2020/12/14 12:57:50;;;;;;;4.78;1.63;;;;;;;;;;5018610;28;20052;-61
2020/12/14 13:00:16;;;;;;;8.27;1.60;;;;;;;;;;5010865;28;20057;-61
2020/12/14 13:02:42;;;;;;;3.75;1.80;;;;;;;;;;4999608;28;20038;-62
2020/12/14 13:05:11;;;;;;;6.53;1.98;;;;;;;;;;4999330;28;20049;-60
2020/12/14 13:07:48;;;;;;;;;;;;;;;;;;;;;
2020/12/14 13:10:18;;;;;;;3.63;1.70;;;;;;;;;;4955810;28;20052;-59
2020/12/14 13:12:54;;;;;;;5.82;2.05;;;;;;;;;;4974696;28;20050;-61
2020/12/14 13:15:22;;;;;;;11.27;3.10;;;;;;;;;;4964056;28;20046;-59
2020/12/14 13:17:50;;;;;;;6.22;2.30;;;;;;;;;;4975866;28;20038;-62
2020/12/14 13:20:16;;;;;;;6.77;1.60;;;;;;;;;;4987089;28;20042;-60
2020/12/14 13:22:45;;;;;;;7.72;2.30;;;;;;;;;;4991300;28;20278;-60
2020/12/14 13:25:11;;;;;;;5.15;2.35;;;;;;;;;;5003570;28;20049;-59
2020/12/14 13:27:37;;;;;;;6.88;2.78;;;;;;;;;;4998958;28;20085;-59
2020/12/14 13:30:08;;;;;;;11.52;3.60;;;;;;;;;;4974728;28;20065;-60
2020/12/14 13:32:36;;;;;;;5.43;2.17;;;;;;;;;;5020187;28;20034;-59
2020/12/14 13:35:03;;;;;;;7.18;2.42;;;;;;;;;;5002712;28;20060;-59
2020/12/14 13:37:34;;;;;;;10.13;3.75;;;;;;;;;;4992219;28;20083;-58
2020/12/14 13:40:02;;;;;;;11.38;4.15;;;;;;;;;;5001677;28;20081;-59
2020/12/14 13:42:28;;;;;;;8.27;3.92;;;;;;;;;;4968848;28;20104;-59
2020/12/14 13:45:00;;;;;;;8.65;3.70;;;;;;;;;;4982931;28;20165;-62
2020/12/14 13:47:32;;;;;;;12.60;4.00;;;;;;;;;;4994578;28;20038;-58
2020/12/14 13:49:58;;;;;;;14.57;5.03;;;;;;;;;;5013965;28;20100;-61
2020/12/14 13:52:31;;;;;;;10.90;4.90;;;;;;;;;;4995267;28;20101;-59
2020/12/14 13:55:04;;;;;;;8.25;3.80;;;;;;;;;;4994794;28;20078;-60
2020/12/14 13:57:33;;;;;;;12.25;3.65;;;;;;;;;;5014133;28;20037;-60
2020/12/14 14:00:09;;;;;;;4.65;2.20;;;;;;;;;;5002990;28;20052;-61
2020/12/14 14:02:39;;;;;;;6.28;1.67;;;;;;;;;;5014393;28;20128;-58
2020/12/14 14:05:07;;;;;;;5.70;1.63;;;;;;;;;;5009839;28;20042;-60
2020/12/14 14:07:36;;;;;;;4.65;1.50;;;;;;;;;;5015939;28;20049;-59
2020/12/14 14:10:15;;;;;;;5.18;1.63;;;;;;;;;;4998573;28;20038;-61
2020/12/14 14:12:46;;;;;;;12.13;1.70;;;;;;;;;;5002114;28;20131;-62
2020/12/14 14:15:20;;;;;;;4.25;1.30;;;;;;;;;;5000351;28;20034;-62
2020/12/14 14:17:51;;;;;;;8.23;1.48;;;;;;;;;;4996378;28;20034;-62
2020/12/14 14:20:21;;;;;;;9.45;1.85;;;;;;;;;;4981124;28;20046;-60
2020/12/14 14:22:48;;;;;;;3.95;1.60;;;;;;;;;;4973686;28;20046;-61
2020/12/14 14:25:14;;;;;;;6.32;1.80;;;;;;;;;;5013038;28;20046;-59
2020/12/14 14:27:41;;;;;;;9.32;2.17;;;;;;;;;;4998427;28;20042;-61
2020/12/14 14:30:15;;;;;;;5.05;1.85;;;;;;;;;;4990606;28;20050;-62
2020/12/14 14:32:50;;;;;;;5.88;1.88;;;;;;;;;;4989482;28;20049;-59
2020/12/14 14:35:18;;;;;;;3.20;1.40;;;;;;;;;;4989381;28;20052;-58
2020/12/14 14:37:47;;;;;;;4.70;1.75;;;;;;;;;;5015534;28;20070;-59
2020/12/14 14:40:14;;;;;;;5.50;1.40;;;;;;;;;;5019929;28;20050;-62
2020/12/14 14:42:40;;;;;;;4.28;1.70;;;;;;;;;;5003773;28;20046;-61
2020/12/14 14:45:07;;;;;;;3.85;1.50;;;;;;;;;;5019783;28;20120;-61
2020/12/14 14:47:33;;;;;;;7.85;1.60;;;;;;;;;;5020709;28;20539;-58